Pippa Passes, Kentucky
Current Conditions -  °F | °C
As of 11:15 PM on Sunday 25 Jan 2015 (Local Time) from KPBX Reporting Station
Drizzle Drizzle  
Wind Chill: 38°   Ceiling: 4700
Heat Index: 43°   Visibility: 10mi
Dew Point: 36°   Wind: 7mph
Humidity: 77%   Direction: 170°S
Pressure: 29.66"   Gusts: NA
Location:  37.33°N, 82.87°W
Report Text: KPBX 260415Z AUTO 17006KT 10SM DZ SCT034 OVC047 06/02 A2966 RMK AO2 T00590022
Loading
Personal Weather Stations






























Interactive Weather Map New forecast layout! Learn more

10-Day Weather Forecast

Advertisements
Track Severe Weather on mobile